createdAt,value
2023-05-19T00:00:30.806Z,56.20
2023-05-19T00:05:33.549Z,58.45
2023-05-19T00:10:35.350Z,58.02
2023-05-19T00:15:37.105Z,56.22
2023-05-19T00:20:38.884Z,56.95
2023-05-19T00:25:40.444Z,56.82
2023-05-19T00:30:41.944Z,56.74
2023-05-19T00:35:43.505Z,56.47
2023-05-19T00:40:45.587Z,56.66
2023-05-19T00:45:47.302Z,56.22
2023-05-19T00:50:50.833Z,57.67
2023-05-19T00:55:52.341Z,56.62
2023-05-19T01:00:56.118Z,56.62
2023-05-19T01:06:01.589Z,56.47
2023-05-19T01:11:04.172Z,57.03
2023-05-19T01:16:13.991Z,57.69
2023-05-19T01:21:38.430Z,56.78
2023-05-19T01:27:26.862Z,56.71
2023-05-19T01:32:30.027Z,57.33
2023-05-19T01:37:32.222Z,56.90
2023-05-19T01:42:37.352Z,57.40
2023-05-19T01:47:42.748Z,57.30
2023-05-19T01:52:44.363Z,57.60
2023-05-19T01:58:05.092Z,57.35
2023-05-19T02:03:26.027Z,57.46
2023-05-19T02:08:31.196Z,58.28
2023-05-19T02:13:37.842Z,58.18
2023-05-19T02:18:40.545Z,58.34
2023-05-19T02:23:42.156Z,58.11
2023-05-19T02:28:43.684Z,58.27
2023-05-19T02:33:45.185Z,58.34
2023-05-19T02:38:46.691Z,58.98
2023-05-19T02:43:48.190Z,58.96
2023-05-19T02:48:50.812Z,59.49
2023-05-19T02:53:52.322Z,59.50
2023-05-19T02:58:53.842Z,60.94
2023-05-19T03:03:55.774Z,61.50
2023-05-19T03:08:57.293Z,60.70
2023-05-19T03:13:58.897Z,61.37
2023-05-19T03:19:00.575Z,61.40
2023-05-19T03:24:02.503Z,60.35
2023-05-19T03:29:04.507Z,60.08
2023-05-19T03:34:09.765Z,59.43
2023-05-19T03:39:12.081Z,59.52
2023-05-19T03:44:14.295Z,60.18
2023-05-19T03:49:15.893Z,59.68
2023-05-19T03:54:32.599Z,59.67
2023-05-19T03:59:35.350Z,59.71
2023-05-19T04:04:38.605Z,59.64
2023-05-19T04:09:40.170Z,60.38
2023-05-19T04:14:41.657Z,59.69
2023-05-19T04:19:45.024Z,59.55
2023-05-19T04:24:47.124Z,59.56
2023-05-19T04:29:49.941Z,59.42
2023-05-19T04:34:51.765Z,59.67
2023-05-19T04:39:58.352Z,60.73
2023-05-19T04:45:03.527Z,61.44
2023-05-19T04:50:07.475Z,63.36
2023-05-19T04:55:11.188Z,64.09
2023-05-19T05:00:14.213Z,64.83
2023-05-19T05:05:37.464Z,64.11
2023-05-19T05:10:44.226Z,63.37
2023-05-19T05:15:59.504Z,63.30
2023-05-19T05:21:09.296Z,64.97
2023-05-19T05:26:18.737Z,63.17
2023-05-19T05:31:22.928Z,63.45
2023-05-19T05:36:24.482Z,63.34
2023-05-19T05:41:27.423Z,64.66
2023-05-19T05:46:32.328Z,62.39
2023-05-19T05:51:34.727Z,63.66
2023-05-19T05:56:37.596Z,63.97
2023-05-19T06:01:43.870Z,65.03
2023-05-19T06:06:46.297Z,64.12
2023-05-19T06:11:53.284Z,64.05
2023-05-19T06:16:55.658Z,63.21
2023-05-19T06:21:57.289Z,62.90
2023-05-19T06:26:59.470Z,61.17
2023-05-19T06:32:01.239Z,62.28
2023-05-19T06:37:03.771Z,61.24
2023-05-19T06:42:07.984Z,63.79
2023-05-19T06:47:29.280Z,61.49
2023-05-19T06:52:31.232Z,61.14
2023-05-19T06:57:32.997Z,61.51
2023-05-19T07:02:35.974Z,61.02
2023-05-19T07:07:38.722Z,61.75
2023-05-19T07:12:44.465Z,62.69
2023-05-19T07:17:47.176Z,61.53
2023-05-19T07:22:48.882Z,60.71
2023-05-19T07:27:50.955Z,61.56
2023-05-19T07:32:52.636Z,60.36
2023-05-19T07:37:56.523Z,58.46
2023-05-19T07:42:58.109Z,58.91
2023-05-19T07:47:59.620Z,58.58
2023-05-19T07:53:01.201Z,59.85
2023-05-19T07:58:02.702Z,58.11
2023-05-19T08:03:04.365Z,58.72
2023-05-19T08:08:06.119Z,56.74
2023-05-19T08:13:08.295Z,58.09
2023-05-19T08:18:11.236Z,53.92
2023-05-19T08:23:12.857Z,56.10
2023-05-19T08:28:14.413Z,57.70
2023-05-19T08:33:16.241Z,53.63
2023-05-19T08:38:17.727Z,57.27
2023-05-19T08:43:19.354Z,53.73
2023-05-19T08:48:22.070Z,54.87
2023-05-19T08:53:33.888Z,56.66
2023-05-19T08:58:37.295Z,57.51
2023-05-19T09:03:39.772Z,51.84
2023-05-19T09:08:42.290Z,55.88
2023-05-19T09:13:43.948Z,52.01
2023-05-19T09:18:56.483Z,51.36
2023-05-19T09:24:05.086Z,53.16
2023-05-19T09:29:16.447Z,59.48
2023-05-19T09:34:18.661Z,54.27
2023-05-19T09:39:21.930Z,55.96
2023-05-19T09:44:24.561Z,55.52
2023-05-19T09:49:32.780Z,52.53
2023-05-19T09:54:34.625Z,56.12
2023-05-19T09:59:38.845Z,54.98
2023-05-19T10:04:42.293Z,50.34
2023-05-19T10:09:44.780Z,53.96
2023-05-19T10:14:48.692Z,53.31
2023-05-19T10:19:52.205Z,55.47
2023-05-19T10:24:55.895Z,56.55
2023-05-19T10:30:02.074Z,53.57
2023-05-19T10:35:20.521Z,50.38
2023-05-19T10:40:28.473Z,49.22
2023-05-19T10:45:34.456Z,48.12
2023-05-19T10:50:37.770Z,51.47
2023-05-19T10:55:53.283Z,50.41
2023-05-19T11:01:00.924Z,48.24
2023-05-19T11:06:29.006Z,50.57
2023-05-19T11:11:44.897Z,54.64
2023-05-19T11:16:48.243Z,47.07
2023-05-19T11:21:55.224Z,55.50
2023-05-19T11:26:58.355Z,53.14
2023-05-19T11:32:00.629Z,52.34
2023-05-19T11:37:02.793Z,50.83
2023-05-19T11:42:04.506Z,45.45
2023-05-19T11:47:06.249Z,49.59
2023-05-19T11:52:09.092Z,43.44
2023-05-19T11:57:10.936Z,46.42
2023-05-19T12:02:28.008Z,44.24
2023-05-19T12:07:29.600Z,43.68
2023-05-19T12:12:32.027Z,50.82
2023-05-19T12:17:38.337Z,47.01
2023-05-19T12:22:39.882Z,50.31
2023-05-19T12:27:43.381Z,48.44
2023-05-19T12:32:46.785Z,45.25
2023-05-19T12:37:49.153Z,45.21
2023-05-19T12:42:53.409Z,49.44
2023-05-19T12:47:55.324Z,45.19
2023-05-19T12:52:58.410Z,57.02
2023-05-19T12:58:07.172Z,58.82
2023-05-19T13:03:15.961Z,54.33
2023-05-19T13:08:20.216Z,44.43
2023-05-19T13:13:22.051Z,51.61
2023-05-19T13:18:24.383Z,47.98
2023-05-19T13:23:26.325Z,46.40
2023-05-19T13:28:28.245Z,43.80
2023-05-19T13:33:29.764Z,56.19
2023-05-19T13:38:31.255Z,56.04
2023-05-19T13:43:32.739Z,51.58
2023-05-19T13:48:34.219Z,48.29
2023-05-19T13:53:35.786Z,48.27
2023-05-19T13:58:37.298Z,53.94
2023-05-19T14:03:38.881Z,55.79
2023-05-19T14:08:41.231Z,43.86
2023-05-19T14:13:43.411Z,49.31
2023-05-19T14:18:44.985Z,49.07
2023-05-19T14:23:46.588Z,46.80
2023-05-19T14:28:48.067Z,50.10
2023-05-19T14:33:49.793Z,55.81
2023-05-19T14:38:51.271Z,53.98
2023-05-19T14:43:52.794Z,50.32
2023-05-19T14:48:54.373Z,48.26
2023-05-19T14:53:56.341Z,52.01
2023-05-19T14:58:57.862Z,52.69
2023-05-19T15:03:59.392Z,51.67
2023-05-19T15:09:00.941Z,51.42
2023-05-19T15:14:02.434Z,52.29
2023-05-19T15:19:04.037Z,46.42
2023-05-19T15:24:05.854Z,46.33
2023-05-19T15:29:07.347Z,53.05
2023-05-19T15:34:08.913Z,55.83
2023-05-19T15:39:10.382Z,48.82
2023-05-19T15:44:12.013Z,46.86
2023-05-19T15:49:13.585Z,53.48
2023-05-19T15:54:15.154Z,52.02
2023-05-19T15:59:16.648Z,56.01
2023-05-19T16:04:18.169Z,54.76
2023-05-19T16:09:19.704Z,50.73
2023-05-19T16:14:21.193Z,50.52
2023-05-19T16:19:23.901Z,50.50
2023-05-19T16:24:25.502Z,52.33
2023-05-19T16:29:27.074Z,49.49
2023-05-19T16:34:30.580Z,48.10
2023-05-19T16:39:32.343Z,52.99
2023-05-19T16:44:33.819Z,47.98
2023-05-19T16:49:35.295Z,51.43
2023-05-19T16:54:36.978Z,49.83
2023-05-19T16:59:38.456Z,50.27
2023-05-19T17:04:39.938Z,52.31
2023-05-19T17:09:42.321Z,48.24
2023-05-19T17:14:44.162Z,50.99
2023-05-19T17:19:46.032Z,49.69
2023-05-19T17:24:47.515Z,50.75
2023-05-19T17:29:49.157Z,48.66
2023-05-19T17:34:50.772Z,50.51
2023-05-19T17:39:52.375Z,49.09
2023-05-19T17:44:53.921Z,52.18
2023-05-19T17:49:55.682Z,52.13
2023-05-19T17:54:57.384Z,50.18
2023-05-19T17:59:59.826Z,50.41
2023-05-19T18:05:01.776Z,49.34
2023-05-19T18:10:05.061Z,52.66
2023-05-19T18:15:06.846Z,54.16
2023-05-19T18:20:08.753Z,52.97
2023-05-19T18:25:10.256Z,52.45
2023-05-19T18:30:11.805Z,52.08
2023-05-19T18:35:13.290Z,53.36
2023-05-19T18:40:14.788Z,53.04
2023-05-19T18:45:16.313Z,54.50
2023-05-19T18:50:17.793Z,52.81
2023-05-19T18:55:19.287Z,54.95
2023-05-19T19:00:20.774Z,53.00
2023-05-19T19:05:22.281Z,54.87
2023-05-19T19:10:23.778Z,53.12
2023-05-19T19:15:25.977Z,53.37
2023-05-19T19:20:27.705Z,53.08
2023-05-19T19:25:29.221Z,54.12
2023-05-19T19:30:30.899Z,53.12
2023-05-19T19:35:32.408Z,54.25
2023-05-19T19:40:34.148Z,54.17
2023-05-19T19:45:39.139Z,53.79
2023-05-19T19:50:40.792Z,54.56
2023-05-19T19:55:43.033Z,54.69
2023-05-19T20:00:44.582Z,53.96
2023-05-19T20:05:46.070Z,55.24
2023-05-19T20:10:48.157Z,55.79
2023-05-19T20:15:49.993Z,54.65
2023-05-19T20:20:51.576Z,55.29
2023-05-19T20:26:10.144Z,54.28
2023-05-19T20:31:13.854Z,54.49
2023-05-19T20:36:15.616Z,53.52
2023-05-19T20:41:17.380Z,56.74
2023-05-19T20:46:18.887Z,56.33
2023-05-19T20:51:21.668Z,54.38
2023-05-19T20:56:23.258Z,55.90
2023-05-19T21:01:26.239Z,57.11
2023-05-19T21:06:27.834Z,56.68
2023-05-19T21:11:29.911Z,58.58
2023-05-19T21:16:31.923Z,56.19
2023-05-19T21:21:33.804Z,55.93
2023-05-19T21:26:35.620Z,56.24
2023-05-19T21:31:37.262Z,55.56
2023-05-19T21:36:38.853Z,55.63
2023-05-19T21:41:42.197Z,57.86
2023-05-19T21:46:43.803Z,56.37
2023-05-19T21:51:45.339Z,58.26
2023-05-19T21:56:46.844Z,56.84
2023-05-19T22:01:48.398Z,56.17
2023-05-19T22:06:49.899Z,56.44
2023-05-19T22:11:51.718Z,56.06
2023-05-19T22:16:53.314Z,57.44
2023-05-19T22:22:01.921Z,59.01
2023-05-19T22:27:04.077Z,56.74
2023-05-19T22:32:07.600Z,57.60
2023-05-19T22:37:09.096Z,57.45
2023-05-19T22:42:10.587Z,59.19
2023-05-19T22:47:13.771Z,57.50
2023-05-19T22:52:15.619Z,57.42
2023-05-19T22:57:17.112Z,58.40
2023-05-19T23:02:19.743Z,59.81
2023-05-19T23:07:21.242Z,58.23
2023-05-19T23:12:22.722Z,60.52
2023-05-19T23:17:24.259Z,59.90
2023-05-19T23:22:25.862Z,58.50
2023-05-19T23:27:27.352Z,57.75
2023-05-19T23:32:29.051Z,59.45
2023-05-19T23:37:30.694Z,60.18
2023-05-19T23:42:32.205Z,60.50
2023-05-19T23:47:33.717Z,58.08
2023-05-19T23:52:35.317Z,58.21
2023-05-19T23:57:36.815Z,57.74
